Lubbock Preston Smith International Airport
KLBB : now visible

Airfield :











YOU CAN JOIN US ON...

 
LOGIN :

Register | Disclaimer

   EN    FR    IT 

 









Legend :    VFR   Marginal VFR   IFR   Intensive IFR   Very Intensive IFR
Visi :
Ceiling :
>= 8 km
>= 3000ft
5 to 8 km
1000 to 3000 ft
1500m to 5 km
500 to 1000 ft
800 to 1500m
200 to 500 ft
< 800m
< 200 ft
Symbols :   Thunderstorms  Fog  Heavy snow  Heavy precipitations  Wind > 20 kt







- Airport Elevation : 3282 ft
- IATA code : LBB


KLBB - Lubbock Preston Smith International

CURRENT METAR :
  • 160553Z 15006KT 10SM SCT300 21/13 A3014 RMK AO2 SLP154 T02110128 10300 20211 403220178 51003

EXPIRED METARs :
  • 160453Z 15006KT 10SM FEW260 SCT300 23/13 A3014 RMK AO2 SLP153 T02280128
  • 160353Z 15007KT 10SM SCT260 SCT300 23/12 A3014 RMK AO2 SLP156 T02280122

TAF KLBB
Valid from the 16 at 06:00 until the 17 at 06:00 UTC


160520Z 1606/1706 15005KT P6SM FEW250
No reported NOTAMs for that airfield.



MET'MAP, your aeronautical weather chart ! - Copyright ORBIFLY December 2007 - Disclaimer

ORBIFLY MET'MAP TEAM :

Programming & Development : Alexandra Zaïnal
Concept & Development : Baudouin d'Aumeries
Co-Development & Prog : Marc-Olivier Méhu
Technical & hardware support : Manuel Goepfert

Contact : metmap@orbifly.com




SOURCES & CREDITS :

   NOAA       Earth
Advisory